sensor_id;sensor_type;location;lat;lon;timestamp;pressure;altitude;pressure_sealevel;temperature;humidity
60345;BME280;46188;52.324;8.032;2023-03-13T00:00:51;99231.81;;;8.02;100.00
60345;BME280;46188;52.324;8.032;2023-03-13T00:03:16;99223.09;;;8.09;100.00
60345;BME280;46188;52.324;8.032;2023-03-13T00:05:42;99220.47;;;8.05;100.00
60345;BME280;46188;52.324;8.032;2023-03-13T00:08:07;99207.34;;;8.19;100.00
60345;BME280;46188;52.324;8.032;2023-03-13T00:10:35;99205.59;;;8.15;100.00
60345;BME280;46188;52.324;8.032;2023-03-13T00:13:01;99207.31;;;8.16;100.00
60345;BME280;46188;52.324;8.032;2023-03-13T00:15:26;99196.84;;;8.22;100.00
60345;BME280;46188;52.324;8.032;2023-03-13T00:17:51;99195.97;;;8.21;100.00
60345;BME280;46188;52.324;8.032;2023-03-13T00:20:16;99194.22;;;8.25;100.00
60345;BME280;46188;52.324;8.032;2023-03-13T00:22:42;99187.22;;;8.18;100.00
60345;BME280;46188;52.324;8.032;2023-03-13T00:25:07;99180.22;;;8.13;100.00
60345;BME280;46188;52.324;8.032;2023-03-13T00:27:33;99186.31;;;8.16;100.00
60345;BME280;46188;52.324;8.032;2023-03-13T00:29:58;99174.97;;;8.21;100.00
60345;BME280;46188;52.324;8.032;2023-03-13T00:32:24;99178.47;;;8.22;100.00
60345;BME280;46188;52.324;8.032;2023-03-13T00:34:49;99177.56;;;8.29;100.00
60345;BME280;46188;52.324;8.032;2023-03-13T00:37:14;99171.44;;;8.27;100.00
60345;BME280;46188;52.324;8.032;2023-03-13T00:39:39;99167.06;;;8.29;100.00
60345;BME280;46188;52.324;8.032;2023-03-13T00:42:05;99172.34;;;8.26;100.00
60345;BME280;46188;52.324;8.032;2023-03-13T00:44:30;99170.59;;;8.25;100.00
60345;BME280;46188;52.324;8.032;2023-03-13T00:46:55;99157.47;;;8.29;100.00
60345;BME280;46188;52.324;8.032;2023-03-13T00:49:21;99152.22;;;8.28;100.00
60345;BME280;46188;52.324;8.032;2023-03-13T00:51:46;99154.81;;;8.17;100.00
60345;BME280;46188;52.324;8.032;2023-03-13T00:54:11;99152.22;;;8.22;100.00
60345;BME280;46188;52.324;8.032;2023-03-13T00:56:36;99151.34;;;8.17;100.00
60345;BME280;46188;52.324;8.032;2023-03-13T00:59:02;99143.47;;;8.23;100.00
60345;BME280;46188;52.324;8.032;2023-03-13T01:01:29;99141.72;;;8.26;100.00
60345;BME280;46188;52.324;8.032;2023-03-13T01:03:58;99146.09;;;8.26;100.00
60345;BME280;46188;52.324;8.032;2023-03-13T01:06:26;99134.69;;;8.24;100.00
60345;BME280;46188;52.324;8.032;2023-03-13T01:08:52;99128.59;;;8.28;100.00
60345;BME280;46188;52.324;8.032;2023-03-13T01:11:20;99123.31;;;8.12;100.00
60345;BME280;46188;52.324;8.032;2023-03-13T01:13:47;99123.31;;;8.12;100.00
60345;BME280;46188;52.324;8.032;2023-03-13T01:16:15;99117.22;;;8.18;100.00
60345;BME280;46188;52.324;8.032;2023-03-13T01:18:44;99110.19;;;8.12;100.00
60345;BME280;46188;52.324;8.032;2023-03-13T01:21:10;99102.34;;;8.16;100.00
60345;BME280;46188;52.324;8.032;2023-03-13T01:23:36;99103.22;;;8.19;100.00
60345;BME280;46188;52.324;8.032;2023-03-13T01:26:03;99100.59;;;8.07;100.00
60345;BME280;46188;52.324;8.032;2023-03-13T01:28:29;99091.00;;;8.04;100.00
60345;BME280;46188;52.324;8.032;2023-03-13T01:30:54;99091.81;;;8.14;100.00
60345;BME280;46188;52.324;8.032;2023-03-13T01:33:19;99085.72;;;8.12;100.00
60345;BME280;46188;52.324;8.032;2023-03-13T01:35:45;99084.00;;;8.09;100.00
60345;BME280;46188;52.324;8.032;2023-03-13T01:38:10;99067.38;;;8.03;100.00
60345;BME280;46188;52.324;8.032;2023-03-13T01:40:48;99056.84;;;8.10;100.00
60345;BME280;46188;52.324;8.032;2023-03-13T01:43:19;99042.84;;;8.07;100.00
60345;BME280;46188;52.324;8.032;2023-03-13T01:48:42;99033.25;;;7.95;100.00
60345;BME280;46188;52.324;8.032;2023-03-13T01:51:13;99020.16;;;7.92;100.00
60345;BME280;46188;52.324;8.032;2023-03-13T01:53:42;99017.53;;;7.95;100.00
60345;BME280;46188;52.324;8.032;2023-03-13T01:56:13;99007.03;;;7.90;100.00
60345;BME280;46188;52.324;8.032;2023-03-13T01:58:41;99007.03;;;7.90;100.00
60345;BME280;46188;52.324;8.032;2023-03-13T02:01:07;98999.16;;;7.93;100.00
60345;BME280;46188;52.324;8.032;2023-03-13T02:03:34;98994.75;;;7.95;100.00
60345;BME280;46188;52.324;8.032;2023-03-13T02:06:01;98979.88;;;7.99;100.00
60345;BME280;46188;52.324;8.032;2023-03-13T02:08:36;98974.66;;;7.93;100.00
60345;BME280;46188;52.324;8.032;2023-03-13T02:11:07;98964.19;;;7.88;100.00
60345;BME280;46188;52.324;8.032;2023-03-13T02:13:36;98962.41;;;7.95;100.00
60345;BME280;46188;52.324;8.032;2023-03-13T02:16:02;98958.94;;;7.85;100.00
60345;BME280;46188;52.324;8.032;2023-03-13T02:18:27;98939.66;;;7.94;100.00
60345;BME280;46188;52.324;8.032;2023-03-13T02:21:01;98934.47;;;7.88;100.00
60345;BME280;46188;52.324;8.032;2023-03-13T02:23:38;98919.59;;;7.84;100.00
60345;BME280;46188;52.324;8.032;2023-03-13T02:26:05;98906.47;;;7.76;100.00
60345;BME280;46188;52.324;8.032;2023-03-13T02:28:33;98908.22;;;7.88;100.00
60345;BME280;46188;52.324;8.032;2023-03-13T02:31:00;98889.81;;;7.91;100.00
60345;BME280;46188;52.324;8.032;2023-03-13T02:33:27;98888.97;;;7.86;100.00
60345;BME280;46188;52.324;8.032;2023-03-13T02:35:54;98871.44;;;7.91;100.00
60345;BME280;46188;52.324;8.032;2023-03-13T02:38:22;98864.50;;;7.84;100.00
60345;BME280;46188;52.324;8.032;2023-03-13T02:40:49;98866.25;;;7.86;100.00
60345;BME280;46188;52.324;8.032;2023-03-13T02:43:20;98854.88;;;7.83;100.00
60345;BME280;46188;52.324;8.032;2023-03-13T02:48:37;98833.88;;;7.86;100.00
60345;BME280;46188;52.324;8.032;2023-03-13T02:51:06;98831.25;;;7.89;100.00
60345;BME280;46188;52.324;8.032;2023-03-13T02:53:34;98824.25;;;7.89;100.00
60345;BME280;46188;52.324;8.032;2023-03-13T02:55:59;98815.56;;;7.80;100.00
60345;BME280;46188;52.324;8.032;2023-03-13T02:58:25;98807.66;;;7.83;100.00
60345;BME280;46188;52.324;8.032;2023-03-13T03:00:51;98814.66;;;7.79;100.00
60345;BME280;46188;52.324;8.032;2023-03-13T03:03:16;98805.91;;;7.82;100.00
60345;BME280;46188;52.324;8.032;2023-03-13T03:05:41;98807.63;;;7.84;100.00
60345;BME280;46188;52.324;8.032;2023-03-13T03:08:07;98803.31;;;7.79;100.00
60345;BME280;46188;52.324;8.032;2023-03-13T03:10:35;98799.78;;;7.83;100.00
60345;BME280;46188;52.324;8.032;2023-03-13T03:13:00;98797.16;;;7.84;100.00
60345;BME280;46188;52.324;8.032;2023-03-13T03:15:25;98801.53;;;7.84;100.00
60345;BME280;46188;52.324;8.032;2023-03-13T03:17:51;98766.56;;;7.85;100.00
60345;BME280;46188;52.324;8.032;2023-03-13T03:20:16;98791.91;;;7.86;100.00
60345;BME280;46188;52.324;8.032;2023-03-13T03:22:41;98777.06;;;7.85;100.00
60345;BME280;46188;52.324;8.032;2023-03-13T03:25:07;98772.66;;;7.85;100.00
60345;BME280;46188;52.324;8.032;2023-03-13T03:27:33;98774.38;;;7.91;100.00
60345;BME280;46188;52.324;8.032;2023-03-13T03:29:58;98759.53;;;7.88;100.00
60345;BME280;46188;52.324;8.032;2023-03-13T03:32:23;98760.38;;;7.93;100.00
60345;BME280;46188;52.324;8.032;2023-03-13T03:34:49;98751.66;;;7.90;100.00
60345;BME280;46188;52.324;8.032;2023-03-13T03:37:14;98741.16;;;7.91;100.00
60345;BME280;46188;52.324;8.032;2023-03-13T03:39:39;98751.66;;;7.93;100.00
60345;BME280;46188;52.324;8.032;2023-03-13T03:42:05;98751.59;;;7.98;100.00
60345;BME280;46188;52.324;8.032;2023-03-13T03:44:30;98741.16;;;7.94;100.00
60345;BME280;46188;52.324;8.032;2023-03-13T03:46:55;98727.97;;;8.01;100.00
60345;BME280;46188;52.324;8.032;2023-03-13T03:49:21;98722.69;;;8.02;100.00
60345;BME280;46188;52.324;8.032;2023-03-13T03:51:46;98721.84;;;8.02;100.00
60345;BME280;46188;52.324;8.032;2023-03-13T03:54:12;98714.00;;;7.97;100.00
60345;BME280;46188;52.324;8.032;2023-03-13T03:56:37;98720.06;;;8.07;100.00
60345;BME280;46188;52.324;8.032;2023-03-13T03:59:03;98702.56;;;8.06;100.00
60345;BME280;46188;52.324;8.032;2023-03-13T04:01:28;98694.66;;;8.10;100.00
60345;BME280;46188;52.324;8.032;2023-03-13T04:03:53;98688.53;;;8.10;100.00
60345;BME280;46188;52.324;8.032;2023-03-13T04:06:18;98687.69;;;8.09;100.00
60345;BME280;46188;52.324;8.032;2023-03-13T04:08:44;98686.78;;;8.12;100.00
60345;BME280;46188;52.324;8.032;2023-03-13T04:11:09;98682.44;;;8.11;100.00
60345;BME280;46188;52.324;8.032;2023-03-13T04:13:34;98684.16;;;8.10;100.00
60345;BME280;46188;52.324;8.032;2023-03-13T04:16:08;98688.50;;;8.15;100.00
60345;BME280;46188;52.324;8.032;2023-03-13T04:18:34;98666.59;;;8.19;100.00
60345;BME280;46188;52.324;8.032;2023-03-13T04:21:04;98695.47;;;8.20;100.00
60345;BME280;46188;52.324;8.032;2023-03-13T04:23:29;98677.03;;;8.29;100.00
60345;BME280;46188;52.324;8.032;2023-03-13T04:25:55;98665.69;;;8.26;100.00
60345;BME280;46188;52.324;8.032;2023-03-13T04:28:20;98667.38;;;8.28;100.00
60345;BME280;46188;52.324;8.032;2023-03-13T04:30:45;98667.34;;;8.35;100.00
60345;BME280;46188;52.324;8.032;2023-03-13T04:33:10;98669.06;;;8.36;100.00
60345;BME280;46188;52.324;8.032;2023-03-13T04:35:36;98666.50;;;8.31;100.00
60345;BME280;46188;52.324;8.032;2023-03-13T04:38:01;98656.00;;;8.31;100.00
60345;BME280;46188;52.324;8.032;2023-03-13T04:40:27;98658.63;;;8.31;100.00
60345;BME280;46188;52.324;8.032;2023-03-13T04:42:52;98658.56;;;8.37;100.00
60345;BME280;46188;52.324;8.032;2023-03-13T04:45:17;98641.06;;;8.39;100.00
60345;BME280;46188;52.324;8.032;2023-03-13T04:47:43;98635.84;;;8.35;100.00
60345;BME280;46188;52.324;8.032;2023-03-13T04:50:09;98638.38;;;8.42;100.00
60345;BME280;46188;52.324;8.032;2023-03-13T04:52:35;98641.09;;;8.33;100.00
60345;BME280;46188;52.324;8.032;2023-03-13T04:55:00;98634.97;;;8.34;100.00
60345;BME280;46188;52.324;8.032;2023-03-13T04:57:25;98635.81;;;8.36;100.00
60345;BME280;46188;52.324;8.032;2023-03-13T04:59:50;98623.53;;;8.43;100.00
60345;BME280;46188;52.324;8.032;2023-03-13T05:02:16;98629.59;;;8.48;100.00
60345;BME280;46188;52.324;8.032;2023-03-13T05:04:41;98624.38;;;8.46;100.00
60345;BME280;46188;52.324;8.032;2023-03-13T05:07:06;98612.03;;;8.55;100.00
60345;BME280;46188;52.324;8.032;2023-03-13T05:09:31;98616.34;;;8.59;100.00
60345;BME280;46188;52.324;8.032;2023-03-13T05:11:57;98612.03;;;8.55;100.00
60345;BME280;46188;52.324;8.032;2023-03-13T05:14:22;98609.38;;;8.58;100.00
60345;BME280;46188;52.324;8.032;2023-03-13T05:16:47;98605.84;;;8.59;100.00
60345;BME280;46188;52.324;8.032;2023-03-13T05:19:12;98605.94;;;8.51;100.00
60345;BME280;46188;52.324;8.032;2023-03-13T05:21:39;98599.72;;;8.60;100.00
60345;BME280;46188;52.324;8.032;2023-03-13T05:24:05;98599.69;;;8.63;100.00
60345;BME280;46188;52.324;8.032;2023-03-13T05:26:30;98606.59;;;8.72;100.00
60345;BME280;46188;52.324;8.032;2023-03-13T05:28:55;98596.97;;;8.71;100.00
60345;BME280;46188;52.324;8.032;2023-03-13T05:31:21;98609.19;;;8.75;100.00
60345;BME280;46188;52.324;8.032;2023-03-13T05:33:46;98597.78;;;8.77;100.00
60345;BME280;46188;52.324;8.032;2023-03-13T05:36:11;98581.13;;;8.77;100.00
60345;BME280;46188;52.324;8.032;2023-03-13T05:38:36;98587.22;;;8.80;100.00
60345;BME280;46188;52.324;8.032;2023-03-13T05:41:02;98581.03;;;8.84;100.00
60345;BME280;46188;52.324;8.032;2023-03-13T05:43:27;98576.63;;;8.86;100.00
60345;BME280;46188;52.324;8.032;2023-03-13T05:45:52;98574.91;;;8.85;100.00
60345;BME280;46188;52.324;8.032;2023-03-13T05:48:17;98550.34;;;8.86;100.00
60345;BME280;46188;52.324;8.032;2023-03-13T05:50:43;98547.66;;;8.91;100.00
60345;BME280;46188;52.324;8.032;2023-03-13T05:53:08;98550.22;;;8.99;100.00
60345;BME280;46188;52.324;8.032;2023-03-13T05:55:33;98551.94;;;8.98;100.00
60345;BME280;46188;52.324;8.032;2023-03-13T05:57:58;98557.16;;;9.01;100.00
60345;BME280;46188;52.324;8.032;2023-03-13T06:00:24;98551.84;;;9.06;100.00
60345;BME280;46188;52.324;8.032;2023-03-13T06:02:49;98557.97;;;9.05;100.00
60345;BME280;46188;52.324;8.032;2023-03-13T06:05:15;98563.16;;;9.11;100.00
60345;BME280;46188;52.324;8.032;2023-03-13T06:07:40;98570.13;;;9.15;100.00
60345;BME280;46188;52.324;8.032;2023-03-13T06:10:05;98556.06;;;9.18;100.00
60345;BME280;46188;52.324;8.032;2023-03-13T06:12:31;98545.41;;;9.29;100.00
60345;BME280;46188;52.324;8.032;2023-03-13T06:14:56;98563.78;;;9.32;100.00
60345;BME280;46188;52.324;8.032;2023-03-13T06:17:21;98566.31;;;9.36;100.00
60345;BME280;46188;52.324;8.032;2023-03-13T06:19:47;98542.59;;;9.41;100.00
60345;BME280;46188;52.324;8.032;2023-03-13T06:22:12;98546.00;;;9.46;100.00
60345;BME280;46188;52.324;8.032;2023-03-13T06:24:38;98560.88;;;9.49;100.00
60345;BME280;46188;52.324;8.032;2023-03-13T06:27:03;98553.81;;;9.52;100.00
60345;BME280;46188;52.324;8.032;2023-03-13T06:29:28;98552.94;;;9.53;100.00
60345;BME280;46188;52.324;8.032;2023-03-13T06:31:53;98541.31;;;9.67;100.00
60345;BME280;46188;52.324;8.032;2023-03-13T06:34:18;98544.72;;;9.72;100.00
60345;BME280;46188;52.324;8.032;2023-03-13T06:36:44;98560.34;;;9.81;100.00
60345;BME280;46188;52.324;8.032;2023-03-13T06:39:10;98551.56;;;9.82;100.00
60345;BME280;46188;52.324;8.032;2023-03-13T06:41:35;98555.81;;;9.89;100.00
60345;BME280;46188;52.324;8.032;2023-03-13T06:44:01;98545.25;;;9.92;100.00
60345;BME280;46188;52.324;8.032;2023-03-13T06:46:26;98544.28;;;9.98;100.00
60345;BME280;46188;52.324;8.032;2023-03-13T06:48:51;98553.00;;;10.02;100.00
60345;BME280;46188;52.324;8.032;2023-03-13T06:51:19;98554.81;;;10.00;100.00
60345;BME280;46188;52.324;8.032;2023-03-13T06:53:44;98552.94;;;10.05;100.00
60345;BME280;46188;52.324;8.032;2023-03-13T06:56:10;98555.44;;;10.11;100.00
60345;BME280;46188;52.324;8.032;2023-03-13T06:58:35;98540.53;;;10.13;100.00
60345;BME280;46188;52.324;8.032;2023-03-13T07:01:11;98546.63;;;10.15;100.00
60345;BME280;46188;52.324;8.032;2023-03-13T07:03:37;98538.66;;;10.18;100.00
60345;BME280;46188;52.324;8.032;2023-03-13T07:06:04;98536.88;;;10.20;100.00
60345;BME280;46188;52.324;8.032;2023-03-13T07:08:30;98557.94;;;10.20;100.00
60345;BME280;46188;52.324;8.032;2023-03-13T07:11:00;98550.78;;;10.27;100.00
60345;BME280;46188;52.324;8.032;2023-03-13T07:13:26;98554.31;;;10.26;100.00
60345;BME280;46188;52.324;8.032;2023-03-13T07:15:52;98562.16;;;10.29;100.00
60345;BME280;46188;52.324;8.032;2023-03-13T07:18:18;98570.03;;;10.32;100.00
60345;BME280;46188;52.324;8.032;2023-03-13T07:20:43;98567.38;;;10.33;100.00
60345;BME280;46188;52.324;8.032;2023-03-13T07:23:08;98579.53;;;10.39;100.00
60345;BME280;46188;52.324;8.032;2023-03-13T07:25:34;98575.91;;;10.46;100.00
60345;BME280;46188;52.324;8.032;2023-03-13T07:27:59;98556.47;;;10.52;100.00
60345;BME280;46188;52.324;8.032;2023-03-13T07:30:25;98583.75;;;10.51;100.00
60345;BME280;46188;52.324;8.032;2023-03-13T07:32:51;98566.09;;;10.55;100.00
60345;BME280;46188;52.324;8.032;2023-03-13T07:35:16;98551.84;;;10.65;100.00
60345;BME280;46188;52.324;8.032;2023-03-13T07:37:41;98568.56;;;10.62;100.00
60345;BME280;46188;52.324;8.032;2023-03-13T07:40:07;98560.53;;;10.68;100.00
60345;BME280;46188;52.324;8.032;2023-03-13T07:42:33;98563.78;;;10.83;100.00
60345;BME280;46188;52.324;8.032;2023-03-13T07:44:58;98550.50;;;10.87;100.00
60345;BME280;46188;52.324;8.032;2023-03-13T07:47:24;98546.91;;;10.90;100.00
60345;BME280;46188;52.324;8.032;2023-03-13T07:49:49;98542.59;;;10.87;100.00
60345;BME280;46188;52.324;8.032;2023-03-13T07:52:14;98548.66;;;10.91;100.00
60345;BME280;46188;52.324;8.032;2023-03-13T07:54:39;98518.69;;;10.95;100.00
60345;BME280;46188;52.324;8.032;2023-03-13T07:57:05;98527.56;;;10.91;100.00
60345;BME280;46188;52.324;8.032;2023-03-13T07:59:30;98530.16;;;10.94;100.00
60345;BME280;46188;52.324;8.032;2023-03-13T08:01:55;98545.00;;;10.98;100.00
60345;BME280;46188;52.324;8.032;2023-03-13T08:04:20;98537.91;;;11.00;100.00
60345;BME280;46188;52.324;8.032;2023-03-13T08:06:46;98521.22;;;11.00;100.00
60345;BME280;46188;52.324;8.032;2023-03-13T08:09:11;98530.84;;;11.02;100.00
60345;BME280;46188;52.324;8.032;2023-03-13T08:11:38;98539.66;;;11.01;100.00
60345;BME280;46188;52.324;8.032;2023-03-13T08:14:08;98515.91;;;11.03;100.00
60345;BME280;46188;52.324;8.032;2023-03-13T08:16:34;98512.22;;;11.10;100.00
60345;BME280;46188;52.324;8.032;2023-03-13T08:19:01;98509.50;;;11.13;100.00
60345;BME280;46188;52.324;8.032;2023-03-13T08:21:30;98527.16;;;11.10;100.00
60345;BME280;46188;52.324;8.032;2023-03-13T08:24:02;98520.88;;;11.15;100.00
60345;BME280;46188;52.324;8.032;2023-03-13T08:26:30;98496.16;;;11.21;100.00
60345;BME280;46188;52.324;8.032;2023-03-13T08:28:58;98515.41;;;11.24;100.00
60345;BME280;46188;52.324;8.032;2023-03-13T08:31:29;98515.47;;;11.21;100.00
60345;BME280;46188;52.324;8.032;2023-03-13T08:33:54;98522.28;;;11.30;100.00
60345;BME280;46188;52.324;8.032;2023-03-13T08:36:28;98505.59;;;11.30;100.00
60345;BME280;46188;52.324;8.032;2023-03-13T08:38:56;98506.56;;;11.27;100.00
60345;BME280;46188;52.324;8.032;2023-03-13T08:41:24;98496.84;;;11.29;100.00
60345;BME280;46188;52.324;8.032;2023-03-13T08:43:53;98490.63;;;11.30;100.00
60345;BME280;46188;52.324;8.032;2023-03-13T08:46:19;98487.78;;;11.39;100.00
60345;BME280;46188;52.324;8.032;2023-03-13T08:48:50;98515.97;;;11.39;100.00
60345;BME280;46188;52.324;8.032;2023-03-13T08:51:18;98499.16;;;11.41;100.00
60345;BME280;46188;52.324;8.032;2023-03-13T08:53:44;98518.44;;;11.45;100.00
60345;BME280;46188;52.324;8.032;2023-03-13T08:56:12;98528.16;;;11.43;100.00
60345;BME280;46188;52.324;8.032;2023-03-13T08:58:37;98543.00;;;11.49;100.00
60345;BME280;46188;52.324;8.032;2023-03-13T09:01:05;98516.41;;;11.56;100.00
60345;BME280;46188;52.324;8.032;2023-03-13T09:03:31;98535.75;;;11.57;100.00
60345;BME280;46188;52.324;8.032;2023-03-13T09:05:58;98525.03;;;11.63;100.00
60345;BME280;46188;52.324;8.032;2023-03-13T09:08:23;98534.84;;;11.58;100.00
60345;BME280;46188;52.324;8.032;2023-03-13T09:10:57;98513.59;;;11.64;100.00
60345;BME280;46188;52.324;8.032;2023-03-13T09:13:24;98516.81;;;11.75;100.00
60345;BME280;46188;52.324;8.032;2023-03-13T09:15:56;98521.31;;;11.72;100.00
60345;BME280;46188;52.324;8.032;2023-03-13T09:18:21;98517.78;;;11.71;100.00
60345;BME280;46188;52.324;8.032;2023-03-13T09:20:46;98497.56;;;11.72;100.00
60345;BME280;46188;52.324;8.032;2023-03-13T09:23:12;98504.31;;;11.84;100.00
60345;BME280;46188;52.324;8.032;2023-03-13T09:25:37;98505.13;;;11.86;100.00
60345;BME280;46188;52.324;8.032;2023-03-13T09:28:03;98511.03;;;11.97;100.00
60345;BME280;46188;52.324;8.032;2023-03-13T09:30:28;98507.38;;;12.01;100.00
60345;BME280;46188;52.324;8.032;2023-03-13T09:32:53;98493.13;;;12.08;100.00
60345;BME280;46188;52.324;8.032;2023-03-13T09:35:19;98521.28;;;12.41;100.00
60345;BME280;46188;52.324;8.032;2023-03-13T09:37:44;98508.91;;;12.43;100.00
60345;BME280;46188;52.324;8.032;2023-03-13T09:40:14;98487.63;;;13.07;100.00
60345;BME280;46188;52.324;8.032;2023-03-13T09:42:46;98503.47;;;14.17;100.00
60345;BME280;46188;52.324;8.032;2023-03-13T09:45:17;98480.19;;;14.00;100.00
60345;BME280;46188;52.324;8.032;2023-03-13T09:47:48;98483.25;;;13.36;100.00
60345;BME280;46188;52.324;8.032;2023-03-13T09:52:48;98491.56;;;12.93;100.00
60345;BME280;46188;52.324;8.032;2023-03-13T09:55:20;98485.69;;;12.84;100.00
60345;BME280;46188;52.324;8.032;2023-03-13T09:57:55;98478.56;;;13.44;100.00
60345;BME280;46188;52.324;8.032;2023-03-13T10:00:30;98490.28;;;13.07;100.00
60345;BME280;46188;52.324;8.032;2023-03-13T10:05:36;98494.75;;;13.61;100.00
60345;BME280;46188;52.324;8.032;2023-03-13T10:08:22;98469.22;;;13.32;100.00
60345;BME280;46188;52.324;8.032;2023-03-13T10:11:03;98463.84;;;13.89;100.00
60345;BME280;46188;52.324;8.032;2023-03-13T10:13:49;98478.38;;;14.27;100.00
60345;BME280;46188;52.324;8.032;2023-03-13T10:16:23;98475.94;;;14.70;100.00
60345;BME280;46188;52.324;8.032;2023-03-13T10:18:58;98477.78;;;14.68;100.00
60345;BME280;46188;52.324;8.032;2023-03-13T10:21:32;98465.41;;;14.68;100.00
60345;BME280;46188;52.324;8.032;2023-03-13T10:24:29;98466.09;;;13.74;100.00
60345;BME280;46188;52.324;8.032;2023-03-13T10:26:56;98466.91;;;13.50;100.00
60345;BME280;46188;52.324;8.032;2023-03-13T10:29:27;98461.84;;;13.69;100.00
60345;BME280;46188;52.324;8.032;2023-03-13T10:32:07;98466.94;;;13.48;100.00
60345;BME280;46188;52.324;8.032;2023-03-13T10:34:56;98483.81;;;13.45;100.00
60345;BME280;46188;52.324;8.032;2023-03-13T10:37:27;98469.97;;;13.37;100.00
60345;BME280;46188;52.324;8.032;2023-03-13T10:39:53;98471.47;;;13.44;100.00
60345;BME280;46188;52.324;8.032;2023-03-13T10:42:26;98474.25;;;13.11;100.00
60345;BME280;46188;52.324;8.032;2023-03-13T10:45:03;98454.25;;;13.03;100.00
60345;BME280;46188;52.324;8.032;2023-03-13T10:47:33;98481.69;;;12.99;100.00
60345;BME280;46188;52.324;8.032;2023-03-13T10:49:59;98459.88;;;12.92;100.00
60345;BME280;46188;52.324;8.032;2023-03-13T10:52:29;98447.66;;;12.88;100.00
60345;BME280;46188;52.324;8.032;2023-03-13T10:55:03;98456.59;;;12.84;100.00
60345;BME280;46188;52.324;8.032;2023-03-13T10:57:32;98442.66;;;12.79;100.00
60345;BME280;46188;52.324;8.032;2023-03-13T10:59:58;98449.72;;;12.78;100.00
60345;BME280;46188;52.324;8.032;2023-03-13T11:04:59;98462.34;;;12.98;100.00
60345;BME280;46188;52.324;8.032;2023-03-13T11:07:29;98447.03;;;13.08;100.00
60345;BME280;46188;52.324;8.032;2023-03-13T11:12:43;98422.72;;;13.52;100.00
60345;BME280;46188;52.324;8.032;2023-03-13T11:15:17;98429.19;;;13.43;100.00
60345;BME280;46188;52.324;8.032;2023-03-13T11:17:51;98426.31;;;13.76;100.00
60345;BME280;46188;52.324;8.032;2023-03-13T11:20:29;98412.88;;;13.82;100.00
60345;BME280;46188;52.324;8.032;2023-03-13T11:23:09;98408.53;;;13.79;100.00
60345;BME280;46188;52.324;8.032;2023-03-13T11:26:03;98403.19;;;13.81;100.00
60345;BME280;46188;52.324;8.032;2023-03-13T11:31:46;98421.13;;;13.73;100.00
60345;BME280;46188;52.324;8.032;2023-03-13T11:34:23;98409.44;;;13.78;100.00
60345;BME280;46188;52.324;8.032;2023-03-13T11:36:59;98396.44;;;13.72;100.00
60345;BME280;46188;52.324;8.032;2023-03-13T11:39:50;98399.66;;;13.80;100.00
60345;BME280;46188;52.324;8.032;2023-03-13T11:45:27;98386.72;;;13.96;100.00
60345;BME280;46188;52.324;8.032;2023-03-13T11:51:01;98377.50;;;14.07;100.00
60345;BME280;46188;52.324;8.032;2023-03-13T11:53:52;98369.03;;;14.22;100.00
60345;BME280;46188;52.324;8.032;2023-03-13T11:56:43;98387.88;;;14.36;100.00
60345;BME280;46188;52.324;8.032;2023-03-13T11:59:38;98360.41;;;14.39;100.00
60345;BME280;46188;52.324;8.032;2023-03-13T12:02:24;98365.31;;;14.50;100.00
60345;BME280;46188;52.324;8.032;2023-03-13T12:04:56;98357.09;;;14.56;100.00
60345;BME280;46188;52.324;8.032;2023-03-13T12:07:26;98359.19;;;14.48;100.00
60345;BME280;46188;52.324;8.032;2023-03-13T12:10:03;98336.44;;;14.42;100.00
60345;BME280;46188;52.324;8.032;2023-03-13T12:12:43;98358.28;;;14.49;100.00
60345;BME280;46188;52.324;8.032;2023-03-13T12:15:23;98379.66;;;14.44;100.00
60345;BME280;46188;52.324;8.032;2023-03-13T12:18:04;98354.56;;;14.53;100.00
60345;BME280;46188;52.324;8.032;2023-03-13T12:20:44;98348.09;;;14.62;100.00
60345;BME280;46188;52.324;8.032;2023-03-13T12:23:18;98334.63;;;14.66;100.00
60345;BME280;46188;52.324;8.032;2023-03-13T12:26:02;98349.38;;;14.95;100.00
60345;BME280;46188;52.324;8.032;2023-03-13T12:31:37;98318.69;;;15.10;100.00
60345;BME280;46188;52.324;8.032;2023-03-13T12:34:37;98334.50;;;15.13;100.00
60345;BME280;46188;52.324;8.032;2023-03-13T12:40:05;98310.47;;;14.96;100.00
60345;BME280;46188;52.324;8.032;2023-03-13T12:42:57;98315.84;;;14.94;100.00
60345;BME280;46188;52.324;8.032;2023-03-13T12:45:26;98302.38;;;15.20;100.00
60345;BME280;46188;52.324;8.032;2023-03-13T12:48:02;98312.09;;;15.41;100.00
60345;BME280;46188;52.324;8.032;2023-03-13T12:53:48;98277.44;;;15.24;97.19
60345;BME280;46188;52.324;8.032;2023-03-13T12:56:40;98272.59;;;15.13;98.73
60345;BME280;46188;52.324;8.032;2023-03-13T12:59:15;98277.78;;;15.16;97.58
60345;BME280;46188;52.324;8.032;2023-03-13T13:01:46;98276.34;;;15.48;97.18
60345;BME280;46188;52.324;8.032;2023-03-13T13:04:13;98265.66;;;15.71;93.12
60345;BME280;46188;52.324;8.032;2023-03-13T13:06:54;98255.06;;;15.90;89.17
60345;BME280;46188;52.324;8.032;2023-03-13T13:09:26;98276.03;;;15.75;86.82
60345;BME280;46188;52.324;8.032;2023-03-13T13:11:53;98241.97;;;15.45;87.59
60345;BME280;46188;52.324;8.032;2023-03-13T13:16:49;98219.28;;;15.97;81.67
60345;BME280;46188;52.324;8.032;2023-03-13T13:24:53;98262.25;;;16.07;78.52
60345;BME280;46188;52.324;8.032;2023-03-13T13:29:56;98251.75;;;15.64;77.93
60345;BME280;46188;52.324;8.032;2023-03-13T13:32:38;98245.97;;;15.56;79.43
60345;BME280;46188;52.324;8.032;2023-03-13T13:37:50;98238.41;;;15.65;81.70
60345;BME280;46188;52.324;8.032;2023-03-13T13:40:25;98250.56;;;15.71;82.62
60345;BME280;46188;52.324;8.032;2023-03-13T13:42:55;98240.34;;;16.01;81.19
60345;BME280;46188;52.324;8.032;2023-03-13T13:45:22;98248.91;;;15.89;77.10
60345;BME280;46188;52.324;8.032;2023-03-13T13:47:50;98240.41;;;16.19;76.63
60345;BME280;46188;52.324;8.032;2023-03-13T13:50:35;98253.16;;;16.12;76.04